Time;durP1;ratioP1;P1;durP2;ratioP2;P2;SDS_P1;SDS_P2;PMS_P1;PMS_P2;Temp;Humidity;BMP_temperature;BMP_pressure;BME280_temperature;BME280_humidity;BME280_pressure;Samples;Min_cycle;Max_cycle;Signal;HPM_P1;HPM_P2
2023/03/10 00:00:17;;;;;;;13.48;3.88;;;18.50;50.70;;;;;;4992224;28;20222;-73
2023/03/10 00:02:48;;;;;;;12.90;3.80;;;18.50;50.70;;;;;;4991296;28;20285;-72
2023/03/10 00:05:16;;;;;;;13.98;3.67;;;18.50;50.60;;;;;;4991145;28;20301;-73
2023/03/10 00:07:44;;;;;;;13.57;3.63;;;18.50;50.70;;;;;;4992747;28;20190;-72
2023/03/10 00:10:14;;;;;;;14.18;3.58;;;18.40;50.60;;;;;;4992077;28;20319;-73
2023/03/10 00:12:42;;;;;;;15.02;3.38;;;18.40;50.60;;;;;;4992413;28;20206;-72
2023/03/10 00:15:10;;;;;;;18.33;3.80;;;18.40;50.60;;;;;;4992149;28;20265;-73
2023/03/10 00:17:38;;;;;;;16.95;4.20;;;18.40;50.60;;;;;;4992341;28;20607;-73
2023/03/10 00:20:07;;;;;;;14.30;3.97;;;18.40;50.70;;;;;;4992202;28;20457;-72
2023/03/10 00:22:34;;;;;;;12.43;3.50;;;18.40;50.70;;;;;;4995562;28;20217;-72
2023/03/10 00:25:01;;;;;;;11.98;3.75;;;18.40;50.60;;;;;;4996200;28;20218;-72
2023/03/10 00:27:30;;;;;;;11.80;3.35;;;18.40;50.70;;;;;;4995796;28;20186;-73
2023/03/10 00:29:57;;;;;;;13.60;3.17;;;18.40;50.60;;;;;;4995935;28;20229;-72
2023/03/10 00:32:25;;;;;;;9.52;3.08;;;18.40;50.70;;;;;;4995793;28;20202;-73
2023/03/10 00:34:52;;;;;;;11.30;3.38;;;18.40;51.30;;;;;;4995875;28;20222;-73
2023/03/10 00:37:19;;;;;;;11.48;3.28;;;18.40;50.70;;;;;;4995888;28;20194;-73
2023/03/10 00:39:51;;;;;;;15.23;3.45;;;18.40;50.70;;;;;;4994654;28;20369;-73
2023/03/10 00:42:18;;;;;;;14.20;3.70;;;18.40;50.70;;;;;;4995714;28;20201;-73
2023/03/10 00:44:47;;;;;;;10.75;3.15;;;18.40;50.70;;;;;;4995325;28;20712;-72
2023/03/10 00:47:14;;;;;;;12.80;3.53;;;18.40;50.70;;;;;;4995693;28;20198;-73
2023/03/10 00:49:41;;;;;;;10.75;3.25;;;18.30;50.60;;;;;;4995664;28;20225;-73
2023/03/10 00:52:08;;;;;;;13.43;3.35;;;18.30;50.60;;;;;;4995238;28;20194;-73
2023/03/10 00:54:38;;;;;;;8.02;3.10;;;18.40;50.70;;;;;;4995551;28;20368;-73
2023/03/10 00:57:05;;;;;;;10.95;3.35;;;18.30;50.60;;;;;;4994939;28;20617;-72
2023/03/10 00:59:32;;;;;;;15.02;3.47;;;18.30;50.60;;;;;;4995494;28;20587;-73
2023/03/10 01:02:01;;;;;;;11.80;3.35;;;18.30;50.60;;;;;;4995103;28;20190;-73
2023/03/10 01:04:28;;;;;;;10.38;3.42;;;18.30;50.60;;;;;;4995050;28;20221;-72
2023/03/10 01:06:55;;;;;;;10.63;2.75;;;18.30;50.60;;;;;;4995303;28;20248;-73
2023/03/10 01:09:22;;;;;;;14.43;3.63;;;18.30;50.60;;;;;;4995027;28;20230;-73
2023/03/10 01:11:49;;;;;;;10.85;3.05;;;18.30;50.60;;;;;;4995029;28;20269;-71
2023/03/10 01:14:17;;;;;;;11.27;2.90;;;18.30;50.60;;;;;;4994804;28;20186;-72
2023/03/10 01:16:44;;;;;;;12.38;3.10;;;18.30;50.60;;;;;;4993242;28;20198;-73
2023/03/10 01:19:13;;;;;;;8.45;2.88;;;18.30;50.80;;;;;;4994487;28;20252;-73
2023/03/10 01:21:40;;;;;;;12.35;3.40;;;18.30;50.70;;;;;;4995297;28;20249;-72
2023/03/10 01:24:08;;;;;;;13.98;2.90;;;18.30;50.60;;;;;;4995126;28;20194;-72
2023/03/10 01:26:36;;;;;;;8.68;2.78;;;18.30;50.60;;;;;;4994643;28;20659;-73
2023/03/10 01:29:03;;;;;;;9.32;3.05;;;18.30;50.60;;;;;;4994978;28;20194;-73
2023/03/10 01:31:30;;;;;;;9.48;2.72;;;18.30;50.60;;;;;;4993410;28;20284;-72
2023/03/10 01:33:57;;;;;;;9.35;2.60;;;18.20;50.50;;;;;;4993540;28;20194;-72
2023/03/10 01:36:27;;;;;;;8.30;2.58;;;18.30;50.60;;;;;;4993682;28;20221;-72
2023/03/10 01:38:56;;;;;;;12.32;2.80;;;18.20;50.60;;;;;;4994756;28;20248;-71
2023/03/10 01:41:25;;;;;;;9.25;2.65;;;18.20;50.60;;;;;;4994656;28;20251;-73
2023/03/10 01:43:52;;;;;;;10.45;2.75;;;18.30;50.60;;;;;;4994557;28;20248;-72
2023/03/10 01:46:43;;;;;;;8.75;2.65;;;18.30;50.70;;;;;;4993472;28;20291;-72
2023/03/10 01:49:16;;;;;;;10.30;2.22;;;18.20;50.60;;;;;;4994555;28;20190;-73
2023/03/10 01:51:47;;;;;;;10.40;2.53;;;18.20;50.60;;;;;;4994440;28;20213;-72
2023/03/10 01:54:18;;;;;;;6.70;1.90;;;18.20;50.60;;;;;;4994346;28;20189;-73
2023/03/10 01:56:47;;;;;;;7.75;2.25;;;18.20;50.60;;;;;;4994393;28;20202;-72
2023/03/10 01:59:14;;;;;;;8.35;2.47;;;18.20;50.70;;;;;;4994229;28;20194;-73
2023/03/10 02:01:42;;;;;;;7.88;2.38;;;18.20;50.60;;;;;;4994316;28;20209;-73
2023/03/10 02:04:14;;;;;;;6.70;2.13;;;18.20;50.70;;;;;;4994243;28;20190;-73
2023/03/10 02:06:42;;;;;;;7.78;2.72;;;18.20;50.70;;;;;;4994501;28;20186;-72
2023/03/10 02:09:12;;;;;;;8.10;2.30;;;18.20;50.70;;;;;;4993429;28;20715;-72
2023/03/10 02:11:39;;;;;;;6.97;2.28;;;18.20;50.70;;;;;;4994184;28;20233;-72
2023/03/10 02:14:06;;;;;;;6.00;2.22;;;18.20;50.70;;;;;;4993707;28;20656;-72
2023/03/10 02:16:34;;;;;;;6.70;2.20;;;18.20;50.70;;;;;;4993866;28;20218;-73
2023/03/10 02:19:03;;;;;;;6.25;1.67;;;18.20;50.70;;;;;;4994079;28;20245;-71
2023/03/10 02:21:41;;;;;;;4.53;1.80;;;18.20;50.70;;;;;;4993656;28;20222;-72
2023/03/10 02:24:18;;;;;;;7.55;2.15;;;18.20;50.70;;;;;;4993840;28;20186;-71
2023/03/10 02:26:53;;;;;;;5.10;1.60;;;18.10;50.60;;;;;;4993577;28;20194;-71
2023/03/10 02:29:26;;;;;;;6.70;1.73;;;18.10;50.70;;;;;;4993732;28;20185;-71
2023/03/10 02:31:55;;;;;;;6.10;1.98;;;18.10;50.70;;;;;;4993626;28;20217;-71
2023/03/10 02:34:23;;;;;;;6.38;2.22;;;18.10;50.70;;;;;;4993628;28;20190;-71
2023/03/10 02:36:50;;;;;;;6.10;2.00;;;18.10;50.70;;;;;;4993395;28;20198;-70
2023/03/10 02:39:17;;;;;;;7.35;1.65;;;18.10;50.70;;;;;;4993033;28;20662;-70
2023/03/10 02:41:45;;;;;;;4.97;1.60;;;18.10;50.70;;;;;;4993637;28;20252;-70
2023/03/10 02:44:15;;;;;;;6.78;1.98;;;18.10;50.70;;;;;;4992931;28;20198;-71
2023/03/10 02:46:43;;;;;;;6.72;2.00;;;18.10;50.80;;;;;;4993526;28;20218;-70
2023/03/10 02:49:11;;;;;;;7.22;1.90;;;18.10;50.80;;;;;;4993484;28;20190;-70
2023/03/10 02:51:40;;;;;;;8.48;2.10;;;18.10;50.80;;;;;;4993290;28;20688;-70
2023/03/10 02:54:08;;;;;;;6.50;1.77;;;18.10;50.90;;;;;;4993394;28;20598;-70
2023/03/10 02:56:36;;;;;;;5.03;1.55;;;18.10;50.90;;;;;;4992999;28;20252;-70
2023/03/10 02:59:04;;;;;;;4.63;1.70;;;18.10;50.90;;;;;;4993411;28;20193;-73
2023/03/10 03:01:31;;;;;;;4.18;1.83;;;18.10;50.90;;;;;;4993185;28;20217;-73
2023/03/10 03:04:01;;;;;;;4.85;1.60;;;18.10;50.90;;;;;;4992832;28;20257;-72
2023/03/10 03:06:29;;;;;;;5.70;1.75;;;18.10;50.90;;;;;;4993101;28;20221;-72
2023/03/10 03:08:56;;;;;;;6.72;1.80;;;18.10;50.90;;;;;;4992737;28;20234;-73
2023/03/10 03:11:23;;;;;;;3.13;1.50;;;18.10;50.90;;;;;;4992762;28;20230;-72
2023/03/10 03:13:51;;;;;;;5.07;1.73;;;18.10;50.90;;;;;;4959054;28;20285;-73
2023/03/10 03:16:18;;;;;;;6.25;1.67;;;18.10;50.90;;;;;;4992518;28;20722;-73
2023/03/10 03:18:45;;;;;;;4.60;1.80;;;18.10;50.90;;;;;;4993019;28;20194;-73
2023/03/10 03:21:16;;;;;;;4.93;1.75;;;18.10;51.00;;;;;;4975380;28;20275;-73
2023/03/10 03:23:44;;;;;;;4.15;1.50;;;18.10;51.00;;;;;;4992681;28;20281;-72
2023/03/10 03:26:17;;;;;;;8.18;1.90;;;18.10;50.90;;;;;;4993033;28;20222;-73
2023/03/10 03:28:45;;;;;;;6.97;2.22;;;18.10;51.00;;;;;;4992993;28;20190;-72
2023/03/10 03:31:19;;;;;;;4.10;1.80;;;18.10;51.00;;;;;;4992888;28;20320;-73
2023/03/10 03:33:47;;;;;;;7.07;1.73;;;18.10;51.00;;;;;;4992633;28;20189;-73
2023/03/10 03:36:17;;;;;;;4.93;1.75;;;18.00;51.00;;;;;;4992531;28;20777;-73
2023/03/10 03:38:44;;;;;;;7.25;1.73;;;18.00;51.00;;;;;;4992891;28;20190;-73
2023/03/10 03:41:12;;;;;;;4.63;1.80;;;18.10;51.10;;;;;;4992757;28;20272;-73
2023/03/10 03:43:39;;;;;;;5.15;1.63;;;18.10;51.10;;;;;;4992524;28;20240;-73
2023/03/10 03:46:06;;;;;;;5.45;1.52;;;18.00;51.00;;;;;;4992703;28;20217;-73
2023/03/10 03:48:33;;;;;;;5.93;1.88;;;18.10;51.10;;;;;;4992868;28;20248;-72
2023/03/10 03:51:01;;;;;;;7.60;1.60;;;18.00;51.00;;;;;;4992716;28;20241;-73
2023/03/10 03:53:30;;;;;;;3.47;1.30;;;18.00;51.10;;;;;;4992540;28;20663;-72
2023/03/10 03:55:57;;;;;;;5.65;1.55;;;18.10;51.10;;;;;;4993404;28;20228;-73
2023/03/10 03:58:24;;;;;;;3.92;1.50;;;18.00;51.00;;;;;;4996619;28;20249;-72
2023/03/10 04:00:52;;;;;;;4.28;1.27;;;18.00;51.10;;;;;;4962160;28;20655;-72
2023/03/10 04:03:19;;;;;;;4.47;1.60;;;18.00;51.10;;;;;;4996250;28;20190;-73
2023/03/10 04:05:47;;;;;;;8.77;1.80;;;18.00;51.10;;;;;;4996351;28;20222;-72
2023/03/10 04:08:14;;;;;;;5.28;1.83;;;18.00;51.10;;;;;;4996037;28;20190;-73
2023/03/10 04:10:42;;;;;;;4.15;1.35;;;18.00;51.10;;;;;;4996339;28;20214;-73
2023/03/10 04:13:09;;;;;;;5.13;2.13;;;18.00;51.10;;;;;;4996676;28;20660;-73
2023/03/10 04:15:36;;;;;;;4.55;1.58;;;18.00;51.10;;;;;;4995987;28;20226;-73
2023/03/10 04:18:04;;;;;;;5.60;1.65;;;18.00;51.10;;;;;;4995971;28;20620;-73
2023/03/10 04:20:31;;;;;;;8.85;2.15;;;18.00;51.10;;;;;;4996425;28;20221;-73
2023/03/10 04:22:58;;;;;;;6.10;1.70;;;18.00;51.10;;;;;;4995839;28;20656;-73
2023/03/10 04:25:25;;;;;;;6.47;2.13;;;18.00;51.00;;;;;;4996163;28;20226;-73
2023/03/10 04:27:53;;;;;;;6.90;1.98;;;18.00;51.10;;;;;;4995755;28;20252;-73
2023/03/10 04:30:22;;;;;;;4.22;1.98;;;18.00;51.00;;;;;;4995918;28;20244;-73
2023/03/10 04:32:49;;;;;;;5.97;2.10;;;17.90;50.90;;;;;;4995827;28;20225;-72
2023/03/10 04:35:16;;;;;;;6.75;2.00;;;18.00;51.00;;;;;;4995858;28;20221;-72
2023/03/10 04:37:44;;;;;;;5.28;2.08;;;18.00;51.60;;;;;;4995869;28;20194;-72
2023/03/10 04:40:13;;;;;;;7.95;2.45;;;18.00;50.90;;;;;;4995773;28;20217;-73
2023/03/10 04:42:41;;;;;;;8.57;2.40;;;18.00;50.90;;;;;;4995823;28;20205;-72
2023/03/10 04:45:12;;;;;;;7.32;2.22;;;17.90;50.80;;;;;;4995382;28;20692;-73
2023/03/10 04:47:40;;;;;;;8.18;2.20;;;17.90;50.80;;;;;;4994357;28;20278;-73
2023/03/10 04:50:08;;;;;;;6.65;2.08;;;17.90;50.80;;;;;;4995284;28;20264;-73
2023/03/10 04:52:35;;;;;;;7.15;2.40;;;17.90;50.80;;;;;;4995814;28;20217;-73
2023/03/10 04:55:02;;;;;;;6.22;2.05;;;17.90;50.80;;;;;;4995585;28;20276;-73
2023/03/10 04:57:29;;;;;;;6.40;1.88;;;17.90;51.40;;;;;;4995613;28;20206;-72
2023/03/10 04:59:56;;;;;;;6.47;2.45;;;17.90;50.70;;;;;;4995406;28;20229;-73
2023/03/10 05:02:25;;;;;;;9.32;2.28;;;17.90;50.70;;;;;;4995426;28;20190;-73
2023/03/10 05:04:52;;;;;;;9.15;2.50;;;17.90;50.70;;;;;;4995156;28;20762;-73
2023/03/10 05:07:20;;;;;;;8.80;2.65;;;17.90;50.70;;;;;;4995354;28;20682;-73
2023/03/10 05:09:47;;;;;;;6.55;2.10;;;17.90;50.60;;;;;;4995024;28;20233;-73
2023/03/10 05:12:14;;;;;;;6.95;2.15;;;17.90;50.60;;;;;;4995336;28;20229;-72
2023/03/10 05:14:41;;;;;;;7.97;2.22;;;17.80;50.50;;;;;;4994871;28;20657;-72
2023/03/10 05:17:08;;;;;;;8.18;2.28;;;17.80;50.50;;;;;;4994851;28;20186;-72
2023/03/10 05:19:37;;;;;;;12.40;2.40;;;17.80;50.40;;;;;;4995033;28;20190;-73
2023/03/10 05:22:06;;;;;;;7.47;1.95;;;17.80;50.30;;;;;;4993942;28;20190;-73
2023/03/10 05:24:33;;;;;;;7.55;2.20;;;17.80;50.30;;;;;;4993780;28;20611;-72
2023/03/10 05:27:01;;;;;;;7.85;2.72;;;17.80;50.20;;;;;;4994982;28;20194;-72
2023/03/10 05:29:28;;;;;;;9.00;2.40;;;17.80;50.20;;;;;;4994670;28;20652;-72
2023/03/10 05:31:56;;;;;;;7.38;2.40;;;17.80;50.20;;;;;;4994889;28;20361;-73
2023/03/10 05:34:25;;;;;;;6.15;2.00;;;17.80;50.10;;;;;;4994563;28;20734;-73
2023/03/10 05:36:55;;;;;;;19.13;2.67;;;17.80;50.10;;;;;;4994873;28;20222;-71
2023/03/10 05:39:22;;;;;;;8.18;2.80;;;17.80;50.00;;;;;;4994535;28;20226;-72
2023/03/10 05:41:49;;;;;;;7.47;2.30;;;17.80;50.00;;;;;;4994714;28;20217;-72
2023/03/10 05:44:16;;;;;;;5.53;1.60;;;17.80;50.00;;;;;;4994661;28;20198;-71
2023/03/10 05:46:43;;;;;;;8.00;2.03;;;17.80;50.00;;;;;;4994602;28;20214;-71
2023/03/10 05:49:11;;;;;;;8.48;2.22;;;17.80;50.00;;;;;;4994288;28;20645;-71
2023/03/10 05:51:38;;;;;;;8.25;2.35;;;17.80;50.00;;;;;;4993989;28;20269;-71
2023/03/10 05:54:08;;;;;;;6.63;1.92;;;17.80;50.00;;;;;;4994177;28;20194;-71
2023/03/10 05:56:35;;;;;;;8.88;2.08;;;17.90;50.00;;;;;;4994412;28;20218;-71
2023/03/10 05:59:02;;;;;;;6.88;1.90;;;17.90;50.00;;;;;;4994396;28;20245;-72
2023/03/10 06:01:29;;;;;;;8.20;2.28;;;17.90;50.00;;;;;;4994273;28;20708;-71
2023/03/10 06:03:56;;;;;;;6.80;2.20;;;17.90;49.90;;;;;;4992735;28;20190;-71
2023/03/10 06:06:24;;;;;;;3.72;1.77;;;17.90;49.80;;;;;;4994189;28;20213;-72
2023/03/10 06:08:51;;;;;;;6.38;1.85;;;17.90;49.70;;;;;;4992728;28;20222;-72
2023/03/10 06:11:19;;;;;;;5.53;1.83;;;18.00;49.70;;;;;;4993944;28;20700;-72
2023/03/10 06:13:46;;;;;;;5.70;1.80;;;18.00;49.70;;;;;;4994272;28;20376;-72
2023/03/10 06:16:14;;;;;;;7.95;2.08;;;18.00;49.70;;;;;;4993985;28;20249;-72
2023/03/10 06:18:41;;;;;;;7.50;1.90;;;18.00;49.60;;;;;;4976018;28;20229;-71
2023/03/10 06:21:10;;;;;;;7.95;2.55;;;18.10;49.70;;;;;;4994049;28;20221;-71
2023/03/10 06:23:37;;;;;;;6.18;2.08;;;18.10;49.60;;;;;;4993427;28;20245;-71
2023/03/10 06:26:07;;;;;;;4.72;1.88;;;18.10;49.60;;;;;;4993927;28;20221;-71
2023/03/10 06:28:38;;;;;;;4.35;1.83;;;18.10;49.40;;;;;;4993783;28;20633;-70
2023/03/10 06:31:08;;;;;;;7.15;2.10;;;18.10;49.40;;;;;;4993382;28;20218;-71
2023/03/10 06:33:35;;;;;;;7.45;2.30;;;18.10;49.40;;;;;;4993362;28;20771;-71
2023/03/10 06:36:02;;;;;;;5.57;1.80;;;18.10;49.40;;;;;;4993385;28;20221;-72
2023/03/10 06:38:29;;;;;;;7.45;1.77;;;18.20;49.50;;;;;;4993650;28;20194;-72
2023/03/10 06:40:57;;;;;;;9.90;2.05;;;18.20;49.40;;;;;;4993715;28;20222;-72
2023/03/10 06:43:24;;;;;;;5.47;2.00;;;18.20;49.40;;;;;;4993202;28;20617;-73
2023/03/10 06:45:53;;;;;;;8.02;2.40;;;18.20;49.40;;;;;;4993383;28;20221;-73
2023/03/10 06:48:20;;;;;;;10.05;2.33;;;18.20;49.40;;;;;;4993156;28;20221;-73
2023/03/10 06:50:50;;;;;;;7.03;2.10;;;18.30;49.50;;;;;;4993135;28;20272;-73
2023/03/10 06:53:19;;;;;;;5.82;1.92;;;18.30;49.40;;;;;;4993234;28;20229;-72
2023/03/10 06:55:57;;;;;;;7.22;2.20;;;18.30;49.40;;;;;;4993307;28;20214;-72
2023/03/10 06:58:24;;;;;;;7.90;2.20;;;18.30;49.30;;;;;;4993155;28;20202;-72
2023/03/10 07:00:53;;;;;;;8.00;1.90;;;18.30;49.30;;;;;;4991816;28;20730;-73
2023/03/10 07:03:20;;;;;;;9.52;2.47;;;18.30;49.10;;;;;;4993326;28;20190;-73
2023/03/10 07:05:48;;;;;;;6.43;1.88;;;18.30;49.10;;;;;;4993090;28;20280;-72
2023/03/10 07:08:15;;;;;;;6.75;2.00;;;18.30;49.00;;;;;;4992760;28;20190;-72
2023/03/10 07:10:42;;;;;;;9.38;2.10;;;18.40;49.10;;;;;;4992982;28;20615;-72
2023/03/10 07:13:12;;;;;;;6.20;1.98;;;18.40;48.90;;;;;;4993355;28;20284;-72
2023/03/10 07:15:39;;;;;;;9.77;2.10;;;18.40;48.90;;;;;;4993039;28;20301;-72
2023/03/10 07:18:08;;;;;;;6.85;2.13;;;18.40;48.90;;;;;;4993126;28;20190;-72
2023/03/10 07:20:35;;;;;;;5.53;2.10;;;18.40;48.80;;;;;;4993184;28;20287;-72
2023/03/10 07:23:02;;;;;;;7.10;2.03;;;18.40;48.80;;;;;;4992791;28;20607;-72
2023/03/10 07:25:29;;;;;;;5.68;1.88;;;18.40;48.80;;;;;;4992807;28;20277;-72
2023/03/10 07:27:57;;;;;;;5.15;1.92;;;18.40;48.70;;;;;;4991273;28;20198;-72
2023/03/10 07:30:24;;;;;;;4.70;1.58;;;18.50;48.60;;;;;;4992658;28;20660;-72
2023/03/10 07:32:52;;;;;;;5.70;1.95;;;18.50;48.60;;;;;;4996474;28;20249;-73
2023/03/10 07:35:21;;;;;;;7.38;1.77;;;18.50;48.50;;;;;;4996718;28;20224;-72
2023/03/10 07:37:48;;;;;;;4.75;1.58;;;18.50;48.50;;;;;;4991799;28;20202;-70
2023/03/10 07:40:15;;;;;;;6.82;1.98;;;18.50;48.40;;;;;;4979180;28;20222;-69
2023/03/10 07:42:43;;;;;;;8.45;2.00;;;18.50;48.30;;;;;;4977663;28;20744;-70
2023/03/10 07:45:11;;;;;;;6.38;2.10;;;18.50;48.10;;;;;;4975804;28;20705;-71
2023/03/10 07:47:38;;;;;;;5.60;1.95;;;18.50;48.10;;;;;;4993892;28;20194;-71
2023/03/10 07:50:06;;;;;;;7.03;1.73;;;18.60;48.00;;;;;;4993095;28;21437;-71
2023/03/10 07:52:35;;;;;;;10.73;2.05;;;18.60;48.00;;;;;;4995749;28;20210;-71
2023/03/10 07:55:03;;;;;;;6.70;1.70;;;18.60;48.00;;;;;;4993467;28;20233;-71
2023/03/10 07:57:30;;;;;;;6.07;1.73;;;18.60;47.90;;;;;;4980532;28;20724;-71
2023/03/10 07:59:58;;;;;;;9.38;1.98;;;18.60;47.90;;;;;;4988046;28;20202;-71
2023/03/10 08:02:25;;;;;;;5.22;1.83;;;18.70;47.70;;;;;;4981345;28;20202;-71
2023/03/10 08:04:52;;;;;;;7.85;1.83;;;18.70;47.70;;;;;;4995791;28;20656;-72
2023/03/10 08:07:20;;;;;;;5.38;1.48;;;18.70;47.50;;;;;;4986003;28;20201;-70
2023/03/10 08:09:52;;;;;;;5.60;1.60;;;18.80;47.60;;;;;;4979401;28;20599;-70
2023/03/10 08:12:20;;;;;;;7.25;1.80;;;18.80;47.60;;;;;;4987256;28;20250;-69
2023/03/10 08:14:49;;;;;;;6.53;1.75;;;18.80;47.50;;;;;;4977854;28;20234;-69
2023/03/10 08:17:17;;;;;;;6.55;1.67;;;18.90;47.40;;;;;;4989098;28;20223;-69
2023/03/10 08:19:44;;;;;;;7.93;1.85;;;18.90;47.30;;;;;;4981503;28;20203;-69
2023/03/10 08:22:11;;;;;;;7.75;2.00;;;18.90;47.10;;;;;;4983508;28;20222;-70
2023/03/10 08:24:38;;;;;;;5.38;1.73;;;18.90;47.00;;;;;;4989452;28;20246;-68
2023/03/10 08:27:08;;;;;;;6.25;1.65;;;18.90;47.00;;;;;;4994201;28;20226;-70
2023/03/10 08:29:37;;;;;;;6.82;1.73;;;19.00;47.10;;;;;;4983025;28;20195;-69
2023/03/10 08:32:04;;;;;;;11.40;2.00;;;19.00;47.00;;;;;;4978007;28;20227;-70
2023/03/10 08:34:33;;;;;;;7.05;1.60;;;19.00;47.00;;;;;;4978298;28;20254;-71
2023/03/10 08:37:00;;;;;;;5.90;1.77;;;19.10;47.00;;;;;;4982596;28;20285;-70
2023/03/10 08:39:29;;;;;;;7.93;1.80;;;19.10;46.90;;;;;;4982362;28;20293;-71
2023/03/10 08:41:56;;;;;;;8.00;1.88;;;19.10;46.80;;;;;;4978116;28;20219;-69
2023/03/10 08:44:24;;;;;;;6.57;2.17;;;19.10;46.00;;;;;;4976160;28;20297;-71
2023/03/10 08:46:52;;;;;;;6.97;1.92;;;19.10;46.30;;;;;;4975102;28;20222;-70
2023/03/10 08:49:21;;;;;;;9.52;2.42;;;19.10;46.40;;;;;;4983854;28;20254;-71
2023/03/10 08:51:49;;;;;;;8.02;1.92;;;19.20;46.50;;;;;;4973252;28;20222;-70
2023/03/10 08:54:19;;;;;;;7.00;2.20;;;19.20;46.40;;;;;;4978289;28;20219;-71
2023/03/10 08:56:47;;;;;;;5.70;1.58;;;19.20;46.40;;;;;;4974835;28;20284;-71
2023/03/10 08:59:14;;;;;;;6.18;2.03;;;19.20;46.30;;;;;;4983714;28;20649;-71
2023/03/10 09:01:43;;;;;;;5.55;2.22;;;19.20;46.20;;;;;;4977317;28;20224;-71
2023/03/10 09:04:11;;;;;;;6.47;1.77;;;19.20;46.20;;;;;;4984919;28;20202;-70
2023/03/10 09:06:39;;;;;;;5.75;1.90;;;19.20;46.10;;;;;;4978133;28;20728;-70
2023/03/10 09:09:08;;;;;;;7.43;1.90;;;19.30;46.10;;;;;;4981025;28;20259;-70
2023/03/10 09:11:38;;;;;;;5.43;1.83;;;19.30;46.00;;;;;;4985478;28;20218;-71
2023/03/10 09:14:06;;;;;;;5.93;1.83;;;19.30;45.80;;;;;;4990809;28;20268;-69
2023/03/10 09:16:33;;;;;;;10.15;2.15;;;19.30;45.70;;;;;;4977062;28;20226;-70
2023/03/10 09:19:02;;;;;;;5.15;1.75;;;19.30;45.70;;;;;;4984368;28;20201;-71
2023/03/10 09:21:31;;;;;;;5.40;1.65;;;19.40;45.70;;;;;;4973565;28;20719;-70
2023/03/10 09:23:59;;;;;;;5.03;1.60;;;19.40;45.70;;;;;;4988127;28;20202;-69
2023/03/10 09:26:26;;;;;;;8.85;1.73;;;19.40;45.70;;;;;;4989495;28;20222;-70
2023/03/10 09:28:54;;;;;;;6.30;1.48;;;19.40;45.20;;;;;;4984915;28;20238;-70
2023/03/10 09:31:24;;;;;;;4.95;1.80;;;19.40;45.60;;;;;;4974175;28;20230;-71
2023/03/10 09:33:51;;;;;;;9.82;1.80;;;19.50;45.30;;;;;;4981520;28;20299;-76
2023/03/10 09:36:20;;;;;;;6.72;1.80;;;19.50;45.20;;;;;;4987119;28;20732;-75
2023/03/10 09:38:48;;;;;;;10.90;1.75;;;19.50;45.20;;;;;;4974583;28;20198;-80
2023/03/10 09:41:53;;;;;;;8.20;1.77;;;19.50;45.30;;;;;;4973079;28;20312;-74
2023/03/10 09:44:31;;;;;;;5.10;1.65;;;19.50;45.20;;;;;;4941155;29;20220;-74
2023/03/10 09:47:13;;;;;;;6.15;1.88;;;19.50;45.00;;;;;;4931032;29;20227;-76
2023/03/10 09:49:46;;;;;;;5.88;1.85;;;19.50;45.20;;;;;;4939941;29;20208;-84
2023/03/10 09:52:24;;;;;;;5.45;1.60;;;19.50;45.20;;;;;;4934902;29;20228;-74
2023/03/10 09:54:58;;;;;;;5.00;1.85;;;19.50;45.20;;;;;;4940573;29;20200;-73
2023/03/10 09:57:26;;;;;;;8.93;1.83;;;19.50;45.00;;;;;;4943571;28;20839;-80
2023/03/10 09:59:59;;;;;;;4.03;1.73;;;19.50;45.00;;;;;;4943577;28;20196;-88
2023/03/10 10:02:30;;;;;;;5.63;1.50;;;19.50;45.00;;;;;;4947990;29;20223;-76
2023/03/10 10:05:02;;;;;;;6.20;1.55;;;19.60;45.00;;;;;;4935764;29;20760;-77
2023/03/10 10:07:42;;;;;;;3.72;1.63;;;19.50;45.00;;;;;;4951765;28;20306;-77
2023/03/10 10:10:18;;;;;;;9.32;1.25;;;19.60;44.90;;;;;;4949587;29;20243;-77
2023/03/10 10:12:47;;;;;;;4.07;1.42;;;19.60;45.00;;;;;;4945821;29;20314;-78
2023/03/10 10:15:17;;;;;;;4.32;1.23;;;19.60;45.00;;;;;;4943744;29;20200;-77
2023/03/10 10:18:00;;;;;;;2.92;1.38;;;19.60;44.90;;;;;;4932508;29;20219;-78
2023/03/10 10:20:32;;;;;;;5.43;1.50;;;19.60;44.90;;;;;;4950484;28;20678;-79
2023/03/10 10:23:01;;;;;;;4.47;1.48;;;19.60;44.80;;;;;;4993001;28;20923;-78
2023/03/10 10:25:31;;;;;;;6.05;1.70;;;19.60;44.70;;;;;;4994133;28;20194;-79
2023/03/10 10:28:01;;;;;;;7.60;1.60;;;19.60;44.70;;;;;;4993097;28;20222;-74
2023/03/10 10:30:31;;;;;;;3.53;1.40;;;19.70;44.40;;;;;;4992458;28;20190;-74
2023/03/10 10:33:00;;;;;;;5.95;1.60;;;19.80;44.60;;;;;;4992414;28;20233;-77
2023/03/10 10:35:30;;;;;;;10.35;1.60;;;19.70;44.50;;;;;;4980672;28;20191;-76
2023/03/10 10:38:05;;;;;;;4.93;1.13;;;19.80;44.60;;;;;;4973129;28;20218;-78
2023/03/10 10:40:35;;;;;;;4.38;1.27;;;19.80;44.00;;;;;;4972786;28;20193;-75
2023/03/10 10:43:06;;;;;;;3.60;1.20;;;19.80;44.10;;;;;;4973030;28;20230;-75
2023/03/10 10:45:37;;;;;;;4.65;1.30;;;19.80;44.00;;;;;;4973259;28;20190;-75
2023/03/10 10:48:05;;;;;;;5.30;1.20;;;19.80;44.00;;;;;;4973154;28;20249;-75
2023/03/10 10:50:35;;;;;;;3.95;1.10;;;19.80;44.00;;;;;;4985755;28;20742;-75
2023/03/10 10:53:23;;;;;;;4.25;1.23;;;19.80;44.00;;;;;;4984967;28;20280;-75
2023/03/10 10:56:03;;;;;;;3.47;1.10;;;19.80;43.80;;;;;;4991515;28;20230;-74
2023/03/10 10:58:33;;;;;;;3.90;1.35;;;19.80;43.80;;;;;;4991355;28;20221;-74
2023/03/10 11:01:02;;;;;;;2.92;1.00;;;19.80;43.80;;;;;;4991537;28;20221;-74
2023/03/10 11:03:32;;;;;;;3.30;1.25;;;19.90;43.80;;;;;;4990565;28;20798;-76
2023/03/10 11:06:00;;;;;;;4.18;1.27;;;19.90;43.10;;;;;;4991927;28;20202;-74
2023/03/10 11:08:36;;;;;;;3.67;1.17;;;19.90;43.40;;;;;;4991510;28;20237;-75
2023/03/10 11:11:17;;;;;;;4.80;1.10;;;19.90;43.30;;;;;;4991741;28;20671;-75
2023/03/10 11:13:58;;;;;;;2.53;1.10;;;19.90;43.40;;;;;;4991494;28;20233;-75
2023/03/10 11:16:31;;;;;;;3.28;1.27;;;19.90;43.30;;;;;;4976096;28;20225;-77
2023/03/10 11:19:04;;;;;;;3.22;1.08;;;19.90;43.20;;;;;;4972069;28;20297;-76
2023/03/10 11:21:36;;;;;;;3.38;1.08;;;19.90;43.20;;;;;;4970894;28;20294;-76
2023/03/10 11:24:13;;;;;;;2.72;0.90;;;20.00;43.20;;;;;;4972346;28;20214;-76
2023/03/10 11:26:49;;;;;;;2.75;1.40;;;19.90;43.00;;;;;;4970812;28;20242;-76
2023/03/10 11:29:30;;;;;;;1.85;0.95;;;19.90;42.90;;;;;;4971942;28;20222;-75
2023/03/10 11:32:06;;;;;;;4.35;1.00;;;19.90;43.50;;;;;;4972523;28;20194;-76
2023/03/10 11:34:39;;;;;;;3.05;1.20;;;20.00;42.90;;;;;;4972263;28;20277;-76
2023/03/10 11:37:15;;;;;;;4.45;0.90;;;20.00;42.90;;;;;;4972343;28;20194;-74
2023/03/10 11:39:52;;;;;;;2.53;1.10;;;20.00;42.80;;;;;;4974794;28;20237;-75
2023/03/10 11:42:28;;;;;;;2.78;1.10;;;20.00;42.10;;;;;;4990348;28;20201;-75
2023/03/10 11:45:12;;;;;;;3.72;1.00;;;20.00;42.10;;;;;;4990900;28;20248;-77
2023/03/10 11:47:50;;;;;;;3.78;1.00;;;20.00;41.80;;;;;;4979305;28;20229;-74
2023/03/10 11:50:28;;;;;;;2.13;0.90;;;20.00;41.90;;;;;;4981301;28;20215;-76
2023/03/10 11:53:00;;;;;;;2.47;1.05;;;20.00;41.90;;;;;;4983430;28;20230;-76
2023/03/10 11:55:30;;;;;;;4.47;0.93;;;20.00;41.40;;;;;;4981143;28;20214;-76
2023/03/10 11:58:00;;;;;;;3.03;1.20;;;20.00;41.80;;;;;;4979509;28;20279;-75
2023/03/10 12:00:31;;;;;;;2.38;0.82;;;20.10;41.80;;;;;;4978787;28;20257;-77
2023/03/10 12:03:10;;;;;;;1.27;0.82;;;20.10;41.50;;;;;;4991247;28;20221;-77
2023/03/10 12:05:45;;;;;;;66.13;36.00;;;20.10;41.50;;;;;;4989886;28;20194;-77
2023/03/10 12:08:13;;;;;;;144.63;80.68;;;20.10;41.40;;;;;;4991091;28;20218;-74
2023/03/10 12:10:43;;;;;;;199.85;122.82;;;20.10;41.40;;;;;;4991559;28;20653;-75
2023/03/10 12:13:22;;;;;;;196.02;120.55;;;20.20;41.50;;;;;;4991197;28;20700;-75
2023/03/10 12:15:52;;;;;;;235.25;146.40;;;20.10;41.40;;;;;;4990212;28;20229;-76
2023/03/10 12:18:19;;;;;;;216.82;134.75;;;20.20;41.00;;;;;;4992210;28;20218;-76
2023/03/10 12:20:46;;;;;;;217.23;133.02;;;20.20;41.20;;;;;;4994894;28;20194;-75
2023/03/10 12:23:37;;;;;;;218.98;133.15;;;20.20;40.50;;;;;;4994769;28;20272;-75
2023/03/10 12:26:06;;;;;;;176.82;109.22;;;20.10;40.00;;;;;;4995002;28;20190;-75
2023/03/10 12:28:34;;;;;;;141.20;88.88;;;20.10;39.60;;;;;;4994196;28;20214;-76
2023/03/10 12:31:02;;;;;;;125.72;76.97;;;20.00;39.10;;;;;;4994570;28;20186;-75
2023/03/10 12:33:46;;;;;;;133.73;81.00;;;20.00;39.30;;;;;;4994594;28;20225;-78
2023/03/10 12:36:33;;;;;;;198.63;124.10;;;19.90;38.30;;;;;;4976458;28;20206;-76
2023/03/10 12:39:01;;;;;;;208.35;124.00;;;19.90;39.10;;;;;;4963777;28;20258;-76
2023/03/10 12:41:49;;;;;;;273.45;161.25;;;19.90;39.10;;;;;;4973945;28;20245;-76
2023/03/10 12:44:41;;;;;;;291.95;175.63;;;19.90;39.60;;;;;;4974971;28;20673;-76
2023/03/10 12:47:45;;;;;;;294.13;174.50;;;20.00;39.70;;;;;;4975013;28;20282;-77
2023/03/10 12:50:32;;;;;;;193.65;118.28;;;20.00;39.80;;;;;;4977474;28;20212;-77
2023/03/10 12:53:12;;;;;;;163.90;99.85;;;20.10;39.70;;;;;;4975459;28;20257;-76
2023/03/10 12:55:42;;;;;;;125.50;77.28;;;20.10;39.70;;;;;;4978572;28;20608;-75